Time;durP1;ratioP1;P1;durP2;ratioP2;P2;SDS_P1;SDS_P2;PMS_P1;PMS_P2;Temp;Humidity;BMP_temperature;BMP_pressure;BME280_temperature;BME280_humidity;BME280_pressure;Samples;Min_cycle;Max_cycle;Signal;HPM_P1;HPM_P2
2021/11/15 09:09:14;;;;;;;101.35;67.47;;;205.30;2252.80;;;;;;5381357;24;20058;-80
2021/11/15 09:28:31;;;;;;;106.75;72.50;;;231.10;2252.80;;;;;;4809989;29;20082;-83
2021/11/15 09:37:53;;;;;;;336.63;186.60;;;230.70;2252.80;;;;;;4823061;29;20042;-82
2021/11/15 09:44:05;;;;;;;179.45;116.13;;;231.10;2252.80;;;;;;4817722;29;20045;-83
2021/11/15 09:46:34;;;;;;;154.65;112.55;;;256.70;2252.80;;;;;;4793384;29;20465;-85
2021/11/15 09:49:09;;;;;;;108.15;81.13;;;;;;;;;;4804496;29;20085;-87
2021/11/15 09:51:44;;;;;;;148.88;108.95;;;460.80;1740.80;;;;;;4793377;29;20481;-81
2021/11/15 09:54:11;;;;;;;114.03;88.15;;;537.70;1382.40;;;;;;4788127;29;20476;-82
2021/11/15 09:56:37;;;;;;;80.38;63.20;;;563.40;1280.00;;;;;;4801445;29;20096;-82
2021/11/15 09:59:06;;;;;;;66.85;57.15;;;563.80;1228.80;;;;;;4802395;29;20107;-84
2021/11/15 10:01:32;;;;;;;66.03;54.47;;;589.50;1152.00;;;;;;4800820;29;20031;-84
2021/11/15 10:03:58;;;;;;;69.75;56.13;;;614.40;1100.80;;;;;;4776195;29;20031;-81
2021/11/15 10:06:24;;;;;;;63.50;50.10;;;563.70;1203.20;;;;;;4784214;30;20031;-91
2021/11/15 10:08:55;;;;;;;56.83;45.47;;;512.90;1280.00;;;;;;4788513;30;20039;-90
2021/11/15 10:11:25;;;;;;;63.05;49.13;;;487.10;1843.20;;;;;;4776299;29;20023;-84
2021/11/15 10:13:53;;;;;;;66.25;52.55;;;;;;;;;;4782712;29;20497;-83
2021/11/15 10:16:24;;;;;;;57.85;42.20;;;461.10;1536.00;;;;;;4793132;29;20031;-82
2021/11/15 10:18:58;;;;;;;144.07;86.82;;;460.90;1536.00;;;;;;4784554;29;20039;-81
2021/11/15 10:21:46;;;;;;;87.90;56.47;;;461.20;1536.00;;;;;;4788764;30;20034;-81
2021/11/15 10:24:21;;;;;;;104.60;81.68;;;486.90;1433.60;;;;;;4786452;29;20047;-81
2021/11/15 10:26:57;;;;;;;110.43;51.97;;;538.00;1305.60;;;;;;4806980;29;20027;-92
2021/11/15 10:29:40;;;;;;;43.30;25.65;;;588.80;1203.20;;;;;;4791098;29;20142;-90
2021/11/15 10:32:07;;;;;;;30.75;23.25;;;589.30;1126.40;;;;;;4807172;29;20485;-90
2021/11/15 10:34:36;;;;;;;29.58;22.17;;;538.50;1177.60;;;;;;4790470;29;20030;-82
2021/11/15 10:37:09;;;;;;;29.80;23.45;;;563.70;1152.00;;;;;;4806719;29;20027;-87
2021/11/15 10:39:43;;;;;;;;;;;564.00;1152.00;;;;;;4792518;29;20067;-93
2021/11/15 10:42:14;;;;;;;42.50;34.13;;;588.90;1126.40;;;;;;4807646;29;19916;-82
2021/11/15 10:44:46;;;;;;;41.10;31.13;;;538.10;1228.80;;;;;;4791093;29;20431;-90
2021/11/15 10:47:12;;;;;;;32.72;24.95;;;487.30;1305.60;;;;;;4805517;29;20046;-91
2021/11/15 10:49:38;;;;;;;30.63;22.75;;;461.30;1408.00;;;;;;4793228;29;20035;-90
2021/11/15 10:52:09;;;;;;;32.88;26.75;;;436.10;1433.60;;;;;;4794808;29;20493;-89
2021/11/15 10:54:53;;;;;;;32.00;24.08;;;436.10;1484.80;;;;;;4790803;29;20038;-81
2021/11/15 10:57:29;;;;;;;22.75;18.83;;;486.40;1408.00;;;;;;4779307;29;20026;-81
2021/11/15 11:00:05;;;;;;;22.30;18.67;;;486.50;1356.80;;;;;;4752070;29;20151;-79
2021/11/15 11:02:32;;;;;;;25.83;19.92;;;436.00;1433.60;;;;;;4740891;30;20024;-90
2021/11/15 11:05:11;;;;;;;25.63;21.35;;;435.50;1510.40;;;;;;4754867;30;20394;-82
2021/11/15 11:07:38;;;;;;;23.95;18.65;;;;;;;;;;4740310;30;20035;-87
2021/11/15 11:10:10;;;;;;;26.33;19.13;;;409.70;1664.00;;;;;;4740576;30;20032;-91
2021/11/15 11:12:51;;;;;;;25.80;19.38;;;384.70;1664.00;;;;;;4758290;30;20035;-90
2021/11/15 11:18:36;;;;;;;23.75;18.52;;;384.50;1740.80;;;;;;4756619;30;20047;-93
2021/11/15 11:24:15;;;;;;;22.90;16.00;;;384.10;1689.60;;;;;;4758032;30;20110;-91
2021/11/15 11:26:49;;;;;;;21.90;16.63;;;384.10;1689.60;;;;;;4740241;30;20075;-90
2021/11/15 11:29:22;;;;;;;20.58;18.38;;;359.30;1689.60;;;;;;4740592;30;20040;-85
2021/11/15 11:31:52;;;;;;;26.27;19.13;;;359.10;1715.20;;;;;;4740056;30;20132;-92
2021/11/15 11:34:20;;;;;;;25.45;19.55;;;359.10;1740.80;;;;;;4739958;30;20063;-92
2021/11/15 11:36:46;;;;;;;26.65;21.05;;;359.10;1740.80;;;;;;4740224;30;20036;-91
2021/11/15 11:42:08;;;;;;;28.77;23.85;;;359.30;1766.40;;;;;;4720257;30;20037;-93
2021/11/15 11:44:36;;;;;;;23.38;18.17;;;384.00;1740.80;;;;;;4704086;30;20044;-84
2021/11/15 11:47:08;;;;;;;21.83;18.73;;;359.30;1740.80;;;;;;4704870;30;20041;-83
2021/11/15 11:49:36;;;;;;;26.40;20.70;;;384.00;1740.80;;;;;;4709021;30;20053;-89
2021/11/15 11:52:06;;;;;;;24.02;18.85;;;384.10;1740.80;;;;;;4722169;30;20048;-89
2021/11/15 11:54:38;;;;;;;24.63;18.35;;;384.00;1740.80;;;;;;4704958;30;20043;-93
2021/11/15 11:57:23;;;;;;;28.08;19.88;;;384.00;1715.20;;;;;;4707480;30;20029;-93
2021/11/15 11:59:51;;;;;;;31.88;23.75;;;384.00;1740.80;;;;;;4722328;30;20056;-83
2021/11/15 12:02:22;;;;;;;22.15;16.85;;;435.20;1587.20;;;;;;4721638;30;20076;-93
2021/11/15 12:05:03;;;;;;;25.92;18.38;;;435.20;1536.00;;;;;;4719826;30;20124;-90
2021/11/15 12:07:36;;;;;;;22.02;17.27;;;435.60;1561.60;;;;;;4708050;30;20094;-87
2021/11/15 12:10:18;;;;;;;24.92;17.90;;;435.50;1561.60;;;;;;4723857;30;20060;-91
2021/11/15 12:12:52;;;;;;;21.73;15.48;;;436.00;1484.80;;;;;;4714484;30;20040;-92
2021/11/15 12:15:39;;;;;;;26.65;17.73;;;486.60;1331.20;;;;;;4721620;30;20121;-90
2021/11/15 12:18:06;;;;;;;21.38;15.32;;;;;;;;;;4706483;30;20037;-92
2021/11/15 12:21:05;;;;;;;21.45;15.43;;;538.40;1254.40;;;;;;4740360;30;20034;-92
2021/11/15 12:23:44;;;;;;;24.60;16.90;;;589.00;1049.60;;;;;;4738376;30;20467;-85
2021/11/15 12:26:24;;;;;;;18.35;14.82;;;538.30;1152.00;;;;;;4754440;30;20232;-82
2021/11/15 12:28:53;;;;;;;22.77;16.10;;;589.20;1049.60;;;;;;4738874;30;20039;-81
2021/11/15 12:32:04;;;;;;;19.75;15.48;;;563.70;1126.40;;;;;;4739762;30;20032;-81
2021/11/15 12:34:31;;;;;;;304.15;168.57;;;;;;;;;;4737653;30;20040;-80
2021/11/15 12:36:59;;;;;;;21.75;17.48;;;692.00;819.20;;;;;;4740019;30;20043;-80
2021/11/15 12:39:39;;;;;;;20.35;15.50;;;;;;;;;;4738148;30;20047;-81
2021/11/15 12:42:24;;;;;;;22.00;17.52;;;717.10;793.60;;;;;;4764244;30;20028;-81
2021/11/15 12:45:17;;;;;;;20.65;13.15;;;665.70;870.40;;;;;;4771351;30;20042;-79
2021/11/15 12:47:46;;;;;;;21.95;15.80;;;666.00;844.80;;;;;;4755369;30;20077;-82
2021/11/15 12:50:25;;;;;;;20.15;14.98;;;640.20;896.00;;;;;;4756673;30;20130;-83
2021/11/15 12:53:00;;;;;;;17.23;13.60;;;563.50;1100.80;;;;;;4755226;30;20478;-81
2021/11/15 12:55:32;;;;;;;34.55;25.55;;;563.90;1100.80;;;;;;4754900;30;20036;-81
2021/11/15 12:58:00;;;;;;;22.98;15.98;;;588.80;1049.60;;;;;;4754802;30;20036;-81
2021/11/15 13:00:36;;;;;;;22.15;14.73;;;589.10;1024.00;;;;;;4755609;30;20043;-84
2021/11/15 13:03:08;;;;;;;20.33;14.70;;;563.20;1126.40;;;;;;4755796;30;20036;-81
2021/11/15 13:05:38;;;;;;;40.25;27.95;;;564.10;1049.60;;;;;;4754908;30;20042;-81
2021/11/15 13:08:07;;;;;;;93.35;67.47;;;615.20;972.80;;;;;;4754292;30;20565;-81
2021/11/15 13:10:34;;;;;;;141.88;104.55;;;665.80;896.00;;;;;;4758985;30;20024;-81
2021/11/15 13:13:02;;;;;;;57.35;41.92;;;691.80;819.20;;;;;;4757560;30;20187;-81
2021/11/15 13:15:29;;;;;;;20.45;16.63;;;717.30;793.60;;;;;;4755795;30;20390;-80
2021/11/15 14:00:34;;;;;;;;;;;;;;;;;;;;;
2021/11/15 14:03:25;;;;;;;40.25;25.50;;;588.80;1075.20;;;;;;4789737;30;20039;-84
2021/11/15 14:05:51;;;;;;;44.50;29.40;;;563.80;1075.20;;;;;;4701710;30;20381;-82
2021/11/15 14:08:21;;;;;;;43.67;28.35;;;512.60;1177.60;;;;;;4703035;30;20088;-82
2021/11/15 14:10:47;;;;;;;74.97;43.10;;;486.80;1280.00;;;;;;4717604;30;20073;-84
2021/11/15 14:13:16;;;;;;;132.95;73.47;;;461.50;1331.20;;;;;;4701728;30;20452;-82
2021/11/15 14:15:47;;;;;;;46.17;32.42;;;460.80;1459.20;;;;;;4702402;30;20508;-89
2021/11/15 14:18:13;;;;;;;48.70;32.67;;;435.60;1433.60;;;;;;4702079;30;20463;-83
2021/11/15 14:20:39;;;;;;;46.85;30.77;;;435.30;1510.40;;;;;;4704002;30;20033;-84
2021/11/15 14:23:05;;;;;;;47.40;33.90;;;410.40;1536.00;;;;;;4701944;30;20053;-84
2021/11/15 14:25:31;;;;;;;138.40;75.18;;;410.20;1510.40;;;;;;4704499;30;20041;-87
2021/11/15 14:27:57;;;;;;;102.45;72.40;;;409.80;1587.20;;;;;;4705485;30;20054;-89
2021/11/15 14:30:22;;;;;;;72.72;54.03;;;409.60;1664.00;;;;;;4707188;30;20144;-84
2021/11/15 14:32:48;;;;;;;124.90;89.90;;;384.50;1689.60;;;;;;4705730;30;20140;-86
2021/11/15 14:35:14;;;;;;;67.05;47.70;;;384.30;1689.60;;;;;;4706069;30;20124;-86
2021/11/15 14:37:40;;;;;;;62.58;42.92;;;359.10;1766.40;;;;;;4705245;30;20033;-88
2021/11/15 14:40:07;;;;;;;71.55;50.22;;;358.80;1843.20;;;;;;4705874;30;20069;-85
2021/11/15 14:42:34;;;;;;;84.40;59.60;;;333.40;1920.00;;;;;;4742687;29;20046;-85
2021/11/15 14:45:00;;;;;;;79.93;58.40;;;333.50;2022.40;;;;;;4794126;29;20068;-87
2021/11/15 14:47:27;;;;;;;90.38;61.72;;;333.20;2099.20;;;;;;4794421;29;20062;-87
2021/11/15 14:49:54;;;;;;;88.28;63.25;;;333.60;2099.20;;;;;;4794623;29;20030;-88
2021/11/15 14:52:22;;;;;;;93.53;63.35;;;333.20;2099.20;;;;;;4793766;29;20389;-87
2021/11/15 15:20:21;;;;;;;105.38;70.28;;;307.80;2252.80;;;;;;1265251;24;21723;-89
2021/11/15 15:22:50;;;;;;;125.55;81.13;;;307.70;2278.40;;;;;;4758069;30;20055;-93
2021/11/15 15:25:16;;;;;;;134.07;88.55;;;307.60;2278.40;;;;;;4758569;30;20074;-90
2021/11/15 15:27:42;;;;;;;137.10;88.68;;;307.50;2278.40;;;;;;4757709;30;20028;-88
2021/11/15 15:30:09;;;;;;;174.18;114.53;;;307.40;2304.00;;;;;;4754721;30;20612;-87
2021/11/15 15:32:37;;;;;;;187.13;117.13;;;307.30;2304.00;;;;;;4754327;30;20032;-84
2021/11/15 15:35:04;;;;;;;162.38;97.47;;;307.30;2304.00;;;;;;4755271;30;20037;-85
2021/11/15 15:37:30;;;;;;;170.82;103.63;;;307.20;2304.00;;;;;;4764075;30;20028;-88
2021/11/15 15:40:05;;;;;;;202.15;124.05;;;282.50;2278.40;;;;;;4765924;30;20036;-89
2021/11/15 15:42:38;;;;;;;201.15;124.72;;;282.50;2278.40;;;;;;4771093;30;20073;-88
2021/11/15 15:45:15;;;;;;;204.73;125.35;;;282.40;2278.40;;;;;;4744933;30;20513;-93
2021/11/15 15:47:49;;;;;;;197.38;122.32;;;282.30;2278.40;;;;;;4749356;30;20036;-87
2021/11/15 15:50:21;;;;;;;200.10;124.22;;;282.30;2278.40;;;;;;4766113;30;20099;-91
2021/11/15 15:52:49;;;;;;;269.98;150.20;;;282.10;2278.40;;;;;;4753520;30;20088;-89
2021/11/15 15:55:21;;;;;;;288.63;166.02;;;282.10;2278.40;;;;;;4768366;30;20036;-88
2021/11/15 15:58:09;;;;;;;296.10;182.55;;;281.90;2278.40;;;;;;4858628;24;20048;-91
2021/11/15 16:00:57;;;;;;;354.52;220.15;;;281.80;2278.40;;;;;;4754063;30;20051;-91
2021/11/15 16:04:10;;;;;;;254.77;169.77;;;281.80;2278.40;;;;;;4779029;24;20108;-88
2021/11/15 16:07:35;;;;;;;242.77;168.18;;;281.70;2278.40;;;;;;4819218;29;20039;-89
2021/11/15 16:25:37;;;;;;;92.50;63.08;;;256.70;2252.80;;;;;;4882687;24;20039;-89
2021/11/15 16:28:03;;;;;;;101.07;68.82;;;256.70;2252.80;;;;;;4807656;29;20099;-88
2021/11/15 17:17:37;;;;;;;90.88;60.22;;;231.00;2252.80;;;;;;5653222;24;20710;-83
2021/11/15 17:20:05;;;;;;;94.40;63.40;;;231.00;2252.80;;;;;;4786730;29;20094;-81
2021/11/15 17:22:33;;;;;;;87.93;60.03;;;231.00;2252.80;;;;;;4779323;29;20043;-83
2021/11/15 17:25:00;;;;;;;101.57;63.03;;;230.90;2252.80;;;;;;4796010;29;20161;-81
2021/11/15 17:30:08;;;;;;;136.30;91.95;;;230.90;2252.80;;;;;;5117997;24;20399;-87
